Time;durP1;ratioP1;P1;durP2;ratioP2;P2;SDS_P1;SDS_P2;PMS_P1;PMS_P2;Temp;Humidity;BMP_temperature;BMP_pressure;BME280_temperature;BME280_humidity;BME280_pressure;Samples;Min_cycle;Max_cycle;Signal;HPM_P1;HPM_P2
2022/01/24 00:02:16;;;;;;;32.90;16.33;;;;;;;5.55;67.74;103440.72;5048561;28;20037;-42
2022/01/24 00:04:42;;;;;;;33.13;15.50;;;;;;;5.50;67.84;103439.16;5033547;28;20059;-41
2022/01/24 00:07:07;;;;;;;32.78;15.40;;;;;;;5.48;67.41;103438.38;5013896;28;20037;-42
2022/01/24 00:09:33;;;;;;;30.65;14.65;;;;;;;5.47;67.93;103435.78;5015524;28;20033;-41
2022/01/24 00:12:04;;;;;;;27.52;13.88;;;;;;;5.53;67.70;103447.94;5031994;28;20057;-41
2022/01/24 00:28:03;;;;;;;33.38;14.98;;;;;;;5.53;67.42;103427.44;5032924;28;20049;-42
2022/01/24 00:30:28;;;;;;;31.85;16.25;;;;;;;5.55;67.61;103433.56;5032857;28;20033;-43
2022/01/24 00:32:54;;;;;;;34.75;16.45;;;;;;;5.57;67.74;103431.66;5031172;28;20072;-41
2022/01/24 00:35:19;;;;;;;33.50;15.13;;;;;;;5.60;67.62;103425.28;5032227;28;20037;-43
2022/01/24 00:37:45;;;;;;;28.30;14.48;;;;;;;5.61;68.37;103427.00;5032257;28;20025;-42
2022/01/24 00:40:10;;;;;;;32.88;14.90;;;;;;;5.53;67.33;103423.91;5032798;28;20029;-42
2022/01/24 00:42:56;;;;;;;33.33;14.70;;;;;;;5.55;67.50;103430.88;5047521;28;22052;-42
2022/01/24 00:55:56;;;;;;;28.40;15.02;;;;;;;5.62;67.74;103426.06;5031206;28;20064;-42
2022/01/24 00:58:21;;;;;;;32.60;16.35;;;;;;;5.59;68.18;103424.44;5032094;28;20473;-42
2022/01/24 01:00:47;;;;;;;38.35;16.52;;;;;;;5.57;69.74;103420.97;5031959;28;20037;-44
2022/01/24 01:03:12;;;;;;;32.30;15.77;;;;;;;5.55;68.07;103425.53;5047307;28;20469;-43
2022/01/24 01:06:00;;;;;;;38.75;16.13;;;;;;;5.54;68.79;103422.97;5031155;28;20048;-43
2022/01/24 01:19:04;;;;;;;34.22;15.02;;;;;;;5.64;69.91;103426.84;5031709;28;20535;-41
2022/01/24 01:21:29;;;;;;;34.72;16.10;;;;;;;5.61;69.67;103419.88;5027720;28;20113;-41
2022/01/24 01:23:57;;;;;;;41.70;17.95;;;;;;;5.59;68.66;103413.75;5032423;28;20033;-42
2022/01/24 01:26:30;;;;;;;44.92;18.92;;;;;;;5.60;68.14;103425.28;5014847;28;20029;-42
2022/01/24 01:29:05;;;;;;;49.95;18.80;;;;;;;5.63;68.73;103422.44;5031209;28;20029;-44
2022/01/24 01:31:44;;;;;;;46.40;19.38;;;;;;;5.69;67.86;103419.44;5031467;28;20029;-42
2022/01/24 01:55:37;;;;;;;63.63;24.80;;;;;;;5.56;68.09;103407.72;5038688;28;20409;-42
2022/01/24 01:58:09;;;;;;;58.92;23.63;;;;;;;5.54;67.31;103415.81;5042291;28;20425;-43
2022/01/24 02:00:36;;;;;;;58.45;24.13;;;;;;;5.52;68.50;103411.50;5035932;28;20084;-42
2022/01/24 02:03:02;;;;;;;56.58;24.10;;;;;;;5.54;68.61;103412.28;5034593;28;20065;-42
2022/01/24 02:05:28;;;;;;;57.75;22.80;;;;;;;5.54;68.52;103414.94;5035499;28;20378;-42
2022/01/24 02:07:53;;;;;;;58.35;23.77;;;;;;;5.52;69.01;103414.16;5035175;28;20088;-42
2022/01/24 02:10:20;;;;;;;58.40;24.33;;;;;;;5.52;68.77;103416.84;5034523;28;20104;-41
2022/01/24 02:12:48;;;;;;;55.22;22.90;;;;;;;5.52;68.82;103406.16;5035156;28;20107;-41
2022/01/24 02:15:18;;;;;;;56.70;23.20;;;;;;;5.53;69.22;103407.88;5034550;28;20461;-42
2022/01/24 02:21:06;;;;;;;60.20;24.83;;;;;;;5.53;68.58;103391.84;5035391;28;20036;-42
2022/01/24 02:25:58;;;;;;;66.15;25.85;;;;;;;5.67;68.74;103403.47;5035054;28;20037;-41
2022/01/24 02:28:26;;;;;;;68.85;26.65;;;;;;;5.81;67.57;103385.78;5050900;28;20022;-43
2022/01/24 02:33:20;;;;;;;70.65;26.80;;;;;;;5.67;68.39;103389.28;5034299;28;20088;-42
2022/01/24 02:35:46;;;;;;;69.82;27.65;;;;;;;5.61;68.25;103392.28;5034059;28;20022;-43
2022/01/24 02:38:22;;;;;;;75.10;28.58;;;;;;;5.61;68.29;103386.91;5033678;28;20029;-42
2022/01/24 02:46:02;;;;;;;68.85;26.20;;;;;;;5.53;68.47;103397.19;5015537;28;20030;-41
2022/01/24 02:49:08;;;;;;;63.58;26.33;;;;;;;5.53;70.93;103386.50;5014389;28;20096;-42
2022/01/24 02:51:46;;;;;;;69.60;26.33;;;;;;;5.58;69.58;103387.09;5025102;28;20029;-42
2022/01/24 02:54:22;;;;;;;68.68;27.20;;;;;;;5.55;69.72;103384.59;5034236;28;20025;-42
2022/01/24 02:56:47;;;;;;;75.95;27.90;;;;;;;5.49;70.35;103381.34;5031346;28;20053;-42
2022/01/24 02:59:13;;;;;;;68.22;26.98;;;;;;;5.48;70.71;103378.78;5034581;28;20028;-42
2022/01/24 03:01:43;;;;;;;69.38;26.85;;;;;;;5.48;71.41;103384.97;5034297;28;20512;-42
2022/01/24 03:04:09;;;;;;;73.22;27.73;;;;;;;5.46;69.32;103372.66;5034382;28;20491;-41
2022/01/24 03:06:35;;;;;;;78.68;28.02;;;;;;;5.49;69.34;103375.13;5034738;28;20025;-42
2022/01/24 03:09:00;;;;;;;69.95;27.00;;;;;;;5.50;69.50;103375.06;5034282;28;20436;-41
2022/01/24 03:11:31;;;;;;;71.10;27.77;;;;;;;5.52;69.55;103368.75;5032880;28;20099;-41
2022/01/24 03:13:56;;;;;;;73.60;27.65;;;;;;;5.47;70.67;103377.88;5034223;28;20049;-41
2022/01/24 03:16:23;;;;;;;71.15;28.08;;;;;;;5.45;70.35;103370.91;5032099;28;20025;-41
2022/01/24 03:18:48;;;;;;;70.43;27.38;;;;;;;5.42;70.32;103371.94;5033296;28;20029;-41
2022/01/24 03:21:13;;;;;;;70.78;28.67;;;;;;;5.42;69.31;103369.25;5034508;28;20396;-41
2022/01/24 03:23:39;;;;;;;66.35;27.95;;;;;;;5.42;69.33;103369.25;5032995;28;20428;-42
2022/01/24 03:26:04;;;;;;;72.22;29.35;;;;;;;5.43;69.73;103360.31;5034095;28;20094;-42
2022/01/24 03:28:29;;;;;;;70.03;28.55;;;;;;;5.55;69.66;103363.25;5032346;28;20477;-41
2022/01/24 03:30:55;;;;;;;66.72;27.40;;;;;;;5.62;69.63;103357.47;5039408;28;20048;-41
2022/01/24 03:33:20;;;;;;;71.75;28.13;;;;;;;5.59;68.94;103356.78;5052789;28;20473;-43
2022/01/24 03:35:46;;;;;;;71.28;28.65;;;;;;;5.57;70.00;103350.66;5052797;28;20039;-42
2022/01/24 03:38:12;;;;;;;71.40;28.23;;;;;;;5.58;69.29;103345.25;5040819;28;20035;-41
2022/01/24 03:40:38;;;;;;;70.65;30.17;;;;;;;5.57;68.55;103350.66;5032559;28;20021;-42
2022/01/24 03:43:03;;;;;;;71.80;29.55;;;;;;;5.53;69.01;103343.75;5033254;28;20133;-42
2022/01/24 03:45:47;;;;;;;76.90;30.27;;;;;;;5.48;68.51;103352.06;5033987;28;20021;-41
2022/01/24 03:48:30;;;;;;;69.30;29.20;;;;;;;5.50;68.82;103351.03;5033204;28;20025;-41
2022/01/24 03:50:55;;;;;;;71.07;30.15;;;;;;;5.47;69.75;103350.31;5032428;28;20040;-42
2022/01/24 03:53:21;;;;;;;71.00;28.92;;;;;;;5.48;69.67;103354.72;5032622;28;20026;-41
2022/01/24 03:55:47;;;;;;;70.47;29.73;;;;;;;5.47;68.88;103363.66;5033841;28;20026;-41
2022/01/24 03:58:12;;;;;;;66.47;28.77;;;;;;;5.53;69.11;103355.34;5029999;28;20030;-41
2022/01/24 04:00:38;;;;;;;69.68;28.73;;;;;;;5.55;69.54;103357.91;5033519;28;20038;-42
2022/01/24 04:03:04;;;;;;;71.43;29.88;;;;;;;5.52;70.42;103347.41;5032452;28;20551;-41
2022/01/24 04:05:29;;;;;;;80.43;30.75;;;;;;;5.48;70.79;103355.59;5033413;28;20113;-42
2022/01/24 04:07:54;;;;;;;70.78;30.65;;;;;;;5.47;69.92;103355.66;5031883;28;20021;-42
2022/01/24 04:10:21;;;;;;;67.50;28.05;;;;;;;5.52;69.98;103360.75;5033391;28;20017;-42
2022/01/24 04:12:49;;;;;;;76.13;32.08;;;;;;;5.47;70.05;103355.66;5033180;28;20052;-41
2022/01/24 04:15:35;;;;;;;;;;;;;;;5.45;69.40;103358.44;5033040;28;20025;-42
2022/01/24 04:23:40;;;;;;;76.10;31.48;;;;;;;5.55;69.88;103355.22;5032339;28;20076;-41
2022/01/24 04:26:07;;;;;;;77.55;32.10;;;;;;;5.57;69.30;103350.66;5031569;28;20033;-41
2022/01/24 04:28:32;;;;;;;78.72;31.30;;;;;;;5.57;70.00;103356.00;5033185;28;20029;-42
2022/01/24 04:30:57;;;;;;;71.93;29.85;;;;;;;5.63;69.86;103356.50;5032445;28;20439;-41
2022/01/24 04:33:23;;;;;;;74.93;29.17;;;;;;;5.68;69.72;103358.91;5032498;28;20116;-41
2022/01/24 04:35:48;;;;;;;77.35;30.35;;;;;;;5.73;69.16;103359.50;5031982;28;20060;-41
2022/01/24 04:38:13;;;;;;;88.15;32.72;;;;;;;5.63;69.36;103348.50;5032636;28;20109;-41
2022/01/24 04:40:40;;;;;;;75.93;31.05;;;;;;;5.64;69.48;103346.69;5031708;28;20029;-42
2022/01/24 04:43:28;;;;;;;69.97;30.35;;;;;;;5.60;69.42;103339.78;5032494;28;20034;-41
2022/01/24 04:51:11;;;;;;;83.18;33.58;;;;;;;5.47;69.98;103342.31;5032035;28;19967;-41
2022/01/24 04:56:22;;;;;;;96.63;38.30;;;;;;;5.44;69.65;103342.47;5020712;28;20041;-42
2022/01/24 04:58:47;;;;;;;95.53;38.60;;;;;;;5.42;70.57;103337.22;5032596;28;20029;-41
2022/01/24 05:01:13;;;;;;;97.38;39.88;;;;;;;5.42;71.13;103334.53;5031899;28;20029;-41
2022/01/24 05:03:38;;;;;;;92.20;38.60;;;;;;;5.43;70.98;103338.97;5031178;28;20025;-42
2022/01/24 05:06:04;;;;;;;93.43;38.75;;;;;;;5.43;71.72;103333.63;5025135;28;20398;-41
2022/01/24 05:08:29;;;;;;;102.05;40.88;;;;;;;5.42;71.12;103337.22;5023960;28;20061;-41
2022/01/24 05:11:09;;;;;;;95.60;39.17;;;;;;;5.41;70.93;103335.50;5020173;28;20021;-41
2022/01/24 05:24:32;;;;;;;93.90;37.83;;;;;;;5.39;72.28;103326.72;5031098;28;20033;-41
2022/01/24 05:26:57;;;;;;;92.53;38.35;;;;;;;5.34;71.64;103331.44;5032181;28;20037;-42
2022/01/24 05:29:22;;;;;;;94.10;37.70;;;;;;;5.36;72.08;103326.03;5031635;28;20037;-41
2022/01/24 05:31:48;;;;;;;92.97;36.75;;;;;;;5.41;71.94;103327.50;5031128;28;20448;-41
2022/01/24 05:34:13;;;;;;;94.63;37.42;;;;;;;5.43;71.31;103328.28;5029959;28;20031;-41
2022/01/24 05:36:39;;;;;;;101.93;37.00;;;;;;;5.40;71.72;103339.13;5032060;28;20219;-42
2022/01/24 05:39:05;;;;;;;86.28;33.97;;;;;;;5.41;71.66;103335.50;5032025;28;20401;-41
2022/01/24 05:41:31;;;;;;;91.28;36.00;;;;;;;5.41;71.73;103335.50;5037813;28;20026;-42
2022/01/24 05:43:56;;;;;;;90.63;36.10;;;;;;;5.43;71.39;103327.41;5014074;28;20050;-42
2022/01/24 05:46:21;;;;;;;94.75;35.83;;;;;;;5.40;72.36;103330.28;5031556;28;20034;-41
2022/01/24 05:48:47;;;;;;;97.32;37.65;;;;;;;5.42;71.81;103337.22;5030418;28;20450;-42
2022/01/24 05:51:13;;;;;;;90.88;36.03;;;;;;;5.46;71.25;103333.44;5044784;28;20485;-41
2022/01/24 05:53:38;;;;;;;88.78;34.92;;;;;;;5.47;71.71;103340.50;5031907;28;20048;-41
2022/01/24 05:56:04;;;;;;;94.90;36.33;;;;;;;5.45;71.02;103336.19;5024832;28;20037;-41
2022/01/24 05:58:29;;;;;;;91.30;36.83;;;;;;;5.38;72.20;103335.69;5026588;28;20022;-42
2022/01/24 06:00:54;;;;;;;87.45;35.63;;;;;;;5.43;70.90;103338.97;5029741;28;20021;-41
2022/01/24 06:03:21;;;;;;;96.88;34.95;;;;;;;5.48;71.44;103344.03;5031049;28;20120;-42
2022/01/24 06:05:46;;;;;;;84.60;35.40;;;;;;;5.46;71.33;103344.13;5030425;28;20389;-41
2022/01/24 06:08:12;;;;;;;96.65;34.38;;;;;;;5.45;71.77;103350.41;5032567;28;20026;-41
2022/01/24 06:10:38;;;;;;;92.25;36.17;;;;;;;5.44;72.12;103356.69;5030878;28;20095;-41
2022/01/24 06:13:03;;;;;;;92.82;36.38;;;;;;;5.41;71.46;103361.34;5041070;28;20079;-41
2022/01/24 06:15:29;;;;;;;95.95;35.75;;;;;;;5.44;70.79;103354.03;5029986;28;20045;-41
2022/01/24 06:17:54;;;;;;;96.53;35.58;;;;;;;5.46;70.80;103359.28;5030177;28;20061;-41
2022/01/24 06:20:20;;;;;;;86.18;34.40;;;;;;;5.37;71.33;103359.78;5029964;28;20059;-41
2022/01/24 06:22:45;;;;;;;95.13;35.97;;;;;;;5.33;71.45;103359.13;5031476;28;20088;-41
2022/01/24 06:25:13;;;;;;;92.90;35.72;;;;;;;5.31;72.38;103362.81;5031723;28;20469;-41
2022/01/24 06:27:38;;;;;;;97.88;35.42;;;;;;;5.34;71.00;103363.50;5030830;28;20037;-41
2022/01/24 06:30:04;;;;;;;99.68;35.35;;;;;;;5.32;71.24;103357.41;5031303;28;20036;-41
2022/01/24 06:32:29;;;;;;;87.93;33.08;;;;;;;5.27;71.18;103354.97;5032956;28;20473;-41
2022/01/24 06:34:55;;;;;;;84.63;35.40;;;;;;;5.24;71.35;103356.97;5035217;28;20033;-41
2022/01/24 06:37:20;;;;;;;89.47;33.75;;;;;;;5.24;71.74;103356.97;5034142;28;20029;-40
2022/01/24 06:39:45;;;;;;;83.00;32.42;;;;;;;5.24;71.43;103352.50;5033999;28;20048;-42
2022/01/24 06:42:14;;;;;;;94.30;34.67;;;;;;;5.20;71.28;103355.41;5033191;28;20414;-40
2022/01/24 06:44:39;;;;;;;;;;;;;;;5.27;71.19;103351.47;5034108;28;20041;-41
2022/01/24 06:47:04;;;;;;;89.68;33.15;;;;;;;5.29;71.11;103357.56;5032777;28;19913;-42
2022/01/24 06:49:31;;;;;;;93.15;34.83;;;;;;;5.27;71.54;103364.81;5033137;28;20520;-42
2022/01/24 06:51:56;;;;;;;89.03;34.80;;;;;;;5.19;71.06;103361.72;5030352;28;20381;-41
2022/01/24 06:54:21;;;;;;;93.10;33.65;;;;;;;5.12;70.76;103374.50;5042507;28;20021;-41
2022/01/24 06:56:47;;;;;;;86.22;34.85;;;;;;;5.10;71.01;103359.53;5032439;28;20037;-42
2022/01/24 06:59:12;;;;;;;93.85;35.53;;;;;;;5.11;71.69;103369.25;5033670;28;20037;-41
2022/01/24 07:01:37;;;;;;;93.88;38.53;;;;;;;5.13;71.25;103367.38;5034199;28;20484;-41
2022/01/24 07:04:04;;;;;;;93.75;37.97;;;;;;;5.18;72.02;103366.16;5032919;28;20186;-41
2022/01/24 07:06:29;;;;;;;93.60;37.20;;;;;;;5.22;71.81;103369.53;5034055;28;20033;-41
2022/01/24 07:08:54;;;;;;;98.40;42.47;;;;;;;5.20;71.33;103372.28;5030615;28;20033;-41
2022/01/24 07:11:20;;;;;;;101.63;38.05;;;;;;;5.14;71.44;103379.78;5024895;28;20065;-40
2022/01/24 07:13:45;;;;;;;97.90;37.17;;;;;;;5.15;71.33;103373.47;5029303;28;20398;-40
2022/01/24 07:16:12;;;;;;;97.07;38.80;;;;;;;5.21;70.50;103381.16;5032038;28;20111;-42
2022/01/24 07:21:21;;;;;;;109.43;41.45;;;;;;;5.18;70.65;103387.50;5024705;28;20094;-42
2022/01/24 07:23:46;;;;;;;107.75;42.72;;;;;;;5.19;71.16;103393.75;5031283;28;20115;-42
2022/01/24 07:26:12;;;;;;;106.18;41.85;;;;;;;5.17;69.88;103387.63;5026890;28;20060;-42
2022/01/24 07:28:37;;;;;;;104.57;41.13;;;;;;;5.24;69.63;103392.53;5022641;28;20152;-42
2022/01/24 07:31:03;;;;;;;112.35;43.10;;;;;;;5.28;69.60;103401.22;5031830;28;20144;-42
2022/01/24 07:33:29;;;;;;;116.25;42.97;;;;;;;5.18;69.87;103403.53;5030891;28;20424;-42
2022/01/24 07:35:54;;;;;;;105.63;40.85;;;;;;;5.12;70.28;103397.69;5032360;28;20040;-41
2022/01/24 07:38:19;;;;;;;109.85;42.25;;;;;;;5.09;70.23;103403.19;5030889;28;20033;-41
2022/01/24 07:40:48;;;;;;;112.75;44.03;;;;;;;5.10;70.43;103402.22;5028238;28;20029;-41
2022/01/24 07:43:13;;;;;;;114.68;42.05;;;;;;;5.06;70.37;103404.22;5025669;28;20064;-43
2022/01/24 07:45:41;;;;;;;115.45;45.25;;;;;;;5.16;70.45;103407.22;5027886;28;20120;-42
2022/01/24 07:48:07;;;;;;;114.78;42.63;;;;;;;5.13;70.19;103404.72;5029925;28;21232;-43
2022/01/24 07:50:35;;;;;;;117.13;44.30;;;;;;;5.07;70.71;103414.78;5031058;28;20061;-43
2022/01/24 07:53:00;;;;;;;111.15;40.92;;;;;;;5.04;70.89;103406.97;5027503;28;20105;-42
2022/01/24 07:55:26;;;;;;;117.72;43.70;;;;;;;5.04;71.08;103412.28;5032601;28;20117;-43
2022/01/24 07:57:52;;;;;;;124.75;44.78;;;;;;;5.06;71.55;103410.41;5031083;28;20043;-43
2022/01/24 08:00:17;;;;;;;123.28;45.40;;;;;;;5.07;71.78;103411.28;5028448;28;20112;-42
2022/01/24 08:02:43;;;;;;;127.78;44.72;;;;;;;5.11;72.06;103407.50;5029698;28;20083;-43
2022/01/24 08:05:09;;;;;;;131.60;45.38;;;;;;;5.16;70.96;103409.91;5031334;28;20032;-42
2022/01/24 08:07:36;;;;;;;132.07;46.58;;;;;;;5.20;72.13;103411.47;5031871;28;20492;-41
2022/01/24 08:10:02;;;;;;;122.80;45.58;;;;;;;5.19;70.82;103409.75;5033305;28;20025;-42
2022/01/24 08:12:28;;;;;;;124.20;46.63;;;;;;;5.17;70.43;103416.97;5029275;28;20092;-42
2022/01/24 08:14:53;;;;;;;121.57;43.80;;;;;;;5.09;70.49;103409.38;5033340;28;20033;-42
2022/01/24 08:17:19;;;;;;;131.15;45.42;;;;;;;5.10;70.53;103410.25;5032428;28;20075;-43
2022/01/24 08:19:44;;;;;;;137.52;47.03;;;;;;;5.09;70.52;103416.53;5033608;28;20053;-43
2022/01/24 08:22:12;;;;;;;126.53;44.67;;;;;;;5.18;69.92;103410.69;5032380;28;20480;-41
2022/01/24 08:24:37;;;;;;;135.93;46.97;;;;;;;5.19;70.23;103415.09;5035243;28;20087;-42
2022/01/24 08:27:03;;;;;;;143.43;51.10;;;;;;;5.17;71.03;103422.31;5029644;28;20033;-40
2022/01/24 08:29:28;;;;;;;145.35;50.33;;;;;;;5.23;71.25;103416.63;5044949;28;20029;-41
2022/01/24 08:31:53;;;;;;;150.32;50.17;;;;;;;5.22;71.11;103404.25;5031697;28;20033;-41
2022/01/24 08:34:18;;;;;;;139.38;48.95;;;;;;;5.05;71.18;103400.69;5030416;28;20425;-42
2022/01/24 08:36:45;;;;;;;140.30;49.13;;;;;;;5.11;70.71;103410.19;5024148;28;20477;-42
2022/01/24 08:39:10;;;;;;;143.63;47.80;;;;;;;5.06;70.79;103410.41;5031873;28;20096;-42
2022/01/24 08:44:33;;;;;;;135.88;47.72;;;;;;;5.06;70.13;103414.91;5032524;28;20489;-42
2022/01/24 08:46:59;;;;;;;130.55;46.10;;;;;;;5.16;70.08;103417.91;5032615;28;20037;-40
2022/01/24 08:49:24;;;;;;;131.70;46.78;;;;;;;5.01;70.21;103417.81;5032504;28;20025;-41
2022/01/24 08:51:50;;;;;;;125.30;44.45;;;;;;;4.96;70.18;103417.19;5030652;28;20025;-40
2022/01/24 08:54:15;;;;;;;141.60;49.00;;;;;;;5.05;70.36;103421.16;5010369;28;20080;-41
2022/01/24 08:56:41;;;;;;;126.28;46.67;;;;;;;4.99;69.71;103422.34;5010001;28;20026;-42
2022/01/24 08:59:06;;;;;;;137.00;48.90;;;;;;;5.11;70.39;103417.28;5012114;28;20481;-42
2022/01/24 09:01:33;;;;;;;138.25;48.35;;;;;;;5.29;69.48;103410.94;5026562;28;20044;-42
2022/01/24 09:03:59;;;;;;;150.50;49.28;;;;;;;5.07;69.38;103412.13;5031305;28;20057;-42
2022/01/24 09:06:24;;;;;;;140.80;46.83;;;;;;;5.01;69.67;103412.47;5032293;28;20065;-44
2022/01/24 09:08:58;;;;;;;128.38;46.03;;;;;;;5.09;69.48;103422.72;5030650;28;20508;-42
2022/01/24 09:11:27;;;;;;;124.57;44.58;;;;;;;5.08;69.15;103423.66;5031099;28;20040;-42
2022/01/24 09:13:52;;;;;;;131.85;46.45;;;;;;;5.03;69.44;103417.75;5030331;28;20319;-42
2022/01/24 09:16:18;;;;;;;137.93;46.85;;;;;;;4.99;69.76;103418.84;5031367;28;20572;-41
2022/01/24 09:18:44;;;;;;;134.75;46.67;;;;;;;4.94;69.72;103416.41;5029296;28;20113;-41
2022/01/24 09:21:09;;;;;;;143.52;50.30;;;;;;;5.02;70.40;103424.00;5029011;28;20450;-42
2022/01/24 09:23:35;;;;;;;146.10;48.65;;;;;;;5.02;69.92;103410.66;5031561;28;20052;-42
2022/01/24 09:26:00;;;;;;;148.63;49.53;;;;;;;5.06;70.02;103423.75;5030062;28;20366;-42
2022/01/24 09:28:25;;;;;;;144.93;49.70;;;;;;;5.11;70.08;103418.19;5030558;28;20527;-42
2022/01/24 09:30:51;;;;;;;144.02;50.70;;;;;;;5.13;70.04;103426.09;5030272;28;20044;-42
2022/01/24 09:33:17;;;;;;;139.27;48.15;;;;;;;5.05;69.68;103424.72;5030888;28;20083;-42
2022/01/24 09:35:43;;;;;;;138.63;48.42;;;;;;;5.06;69.80;103426.44;5031244;28;20029;-42
2022/01/24 09:38:09;;;;;;;140.13;47.30;;;;;;;5.14;69.47;103427.84;5030910;28;20039;-42
2022/01/24 09:40:34;;;;;;;140.85;49.33;;;;;;;5.19;69.44;103431.13;5029319;28;20032;-42
2022/01/24 09:42:59;;;;;;;128.15;45.10;;;;;;;5.22;68.71;103428.28;5029793;28;20485;-42
2022/01/24 09:45:25;;;;;;;115.28;41.45;;;;;;;5.25;68.15;103428.09;5031447;28;20036;-42
2022/01/24 09:47:52;;;;;;;116.68;41.30;;;;;;;5.24;67.62;103431.72;5030013;28;20049;-42
2022/01/24 09:50:18;;;;;;;120.63;43.42;;;;;;;5.14;68.09;103427.84;5030556;28;20460;-42
2022/01/24 09:52:44;;;;;;;129.63;46.08;;;;;;;5.07;68.42;103437.97;5026844;28;20072;-42
2022/01/24 09:55:10;;;;;;;124.25;44.13;;;;;;;4.99;69.52;103434.84;5031607;28;20033;-42
2022/01/24 09:57:36;;;;;;;129.52;45.85;;;;;;;5.11;68.87;103435.97;5029807;28;20116;-42
2022/01/24 10:00:04;;;;;;;120.43;43.90;;;;;;;5.10;68.66;103436.94;5030429;28;20389;-43
2022/01/24 10:02:30;;;;;;;109.30;40.33;;;;;;;4.96;68.14;103435.88;5029910;28;20144;-43
2022/01/24 10:05:15;;;;;;;114.95;42.60;;;;;;;5.02;68.87;103434.69;5026397;28;20053;-42
2022/01/24 10:07:41;;;;;;;111.28;39.15;;;;;;;5.07;67.72;103441.50;5032575;28;20354;-43
2022/01/24 10:10:08;;;;;;;129.60;43.72;;;;;;;5.20;67.87;103443.50;5029322;28;20469;-42
2022/01/24 10:18:12;;;;;;;114.93;40.40;;;;;;;5.13;67.86;103442.97;5032665;28;20413;-44
2022/01/24 10:20:39;;;;;;;111.78;39.88;;;;;;;5.18;67.58;103438.25;5044687;28;20056;-43
2022/01/24 10:23:09;;;;;;;115.00;40.38;;;;;;;5.25;67.62;103438.78;5033673;28;20393;-44
2022/01/24 10:25:59;;;;;;;125.40;41.80;;;;;;;5.24;67.93;103445.09;5033466;28;20049;-42
2022/01/24 10:28:37;;;;;;;121.82;43.13;;;;;;;5.29;67.76;103448.34;5032411;28;20030;-42
2022/01/24 10:31:10;;;;;;;113.25;39.53;;;;;;;5.31;67.57;103450.94;5033029;28;20032;-44
2022/01/24 10:34:00;;;;;;;103.65;36.70;;;;;;;5.21;67.18;103445.22;5034288;28;20507;-45
2022/01/24 10:36:44;;;;;;;109.75;40.20;;;;;;;5.12;67.72;103445.72;5032617;28;20078;-44
2022/01/24 10:39:14;;;;;;;115.30;42.67;;;;;;;5.24;67.47;103434.41;5028069;28;20470;-44
2022/01/24 10:44:26;;;;;;;108.53;40.50;;;;;;;5.41;66.16;103437.00;5034089;28;20049;-44
2022/01/24 10:46:52;;;;;;;113.45;40.35;;;;;;;5.41;67.21;103431.66;5034628;28;20037;-43
2022/01/24 10:49:30;;;;;;;95.03;37.13;;;;;;;5.33;66.62;103439.22;5033440;28;20397;-44
2022/01/24 10:52:09;;;;;;;109.82;40.30;;;;;;;5.33;66.54;103433.88;5032852;28;20106;-44
2022/01/24 10:54:34;;;;;;;100.60;39.03;;;;;;;5.18;67.06;103432.91;5033003;28;20045;-43
2022/01/24 10:57:00;;;;;;;109.20;39.63;;;;;;;5.15;67.09;103430.41;5032167;28;20044;-43
2022/01/24 10:59:25;;;;;;;112.55;39.50;;;;;;;5.30;66.86;103428.72;5032059;28;20491;-44
2022/01/24 11:02:01;;;;;;;97.32;38.28;;;;;;;5.22;66.13;103426.47;5029681;28;20046;-44
2022/01/24 11:04:26;;;;;;;99.95;37.38;;;;;;;5.17;66.45;103422.31;5033237;28;20045;-44
2022/01/24 11:06:54;;;;;;;107.72;40.28;;;;;;;5.28;67.21;103422.59;5029338;28;20119;-44
2022/01/24 11:09:26;;;;;;;102.95;37.30;;;;;;;5.48;66.46;103425.03;5033283;28;20030;-44
2022/01/24 11:12:05;;;;;;;100.03;35.65;;;;;;;5.55;66.22;103416.66;5026888;28;20036;-44
2022/01/24 11:14:31;;;;;;;113.93;39.83;;;;;;;5.59;65.21;103418.22;5024463;28;20103;-45
2022/01/24 11:16:59;;;;;;;108.10;40.58;;;;;;;5.70;66.54;103415.81;5020831;28;20500;-43
2022/01/24 11:21:52;;;;;;;112.15;40.80;;;;;;;5.85;66.41;103406.91;5030893;28;20326;-44
2022/01/24 11:24:22;;;;;;;109.25;41.67;;;;;;;5.90;65.64;103399.50;5033070;28;20466;-43
2022/01/24 11:26:47;;;;;;;108.78;42.60;;;;;;;5.94;66.38;103390.38;5031924;28;20030;-43
2022/01/24 11:29:13;;;;;;;110.28;40.92;;;;;;;6.13;65.08;103387.50;5031487;28;20052;-45
2022/01/24 11:31:44;;;;;;;108.30;39.28;;;;;;;6.06;64.47;103390.63;5031329;28;20032;-43
2022/01/24 11:34:19;;;;;;;111.03;39.88;;;;;;;6.13;63.50;103391.97;5031364;28;20363;-44
2022/01/24 11:36:45;;;;;;;100.55;39.00;;;;;;;6.10;64.09;103402.84;5042344;28;21101;-44
2022/01/24 11:39:11;;;;;;;106.47;39.85;;;;;;;6.03;64.78;103399.69;5035836;28;20025;-44
2022/01/24 11:41:39;;;;;;;107.00;40.95;;;;;;;5.94;64.26;103398.38;5019080;28;20052;-44
2022/01/24 11:44:17;;;;;;;;;;;;;;;5.92;64.33;103399.41;5033473;28;20033;-44
2022/01/24 11:46:52;;;;;;;112.13;41.70;;;;;;;5.88;64.38;103398.72;5031269;28;19959;-45
2022/01/24 11:49:31;;;;;;;112.88;44.13;;;;;;;5.84;64.80;103396.31;5028295;28;20033;-45
2022/01/24 11:52:07;;;;;;;109.78;41.47;;;;;;;6.00;64.23;103397.16;5028930;28;20072;-43
2022/01/24 11:54:53;;;;;;;109.03;40.85;;;;;;;6.05;63.89;103388.88;5024874;28;20052;-43
2022/01/24 11:57:36;;;;;;;122.18;44.28;;;;;;;5.99;63.81;103390.09;5033439;28;20052;-44
2022/01/24 12:00:01;;;;;;;111.20;42.13;;;;;;;5.94;64.18;103387.69;5033612;28;20025;-43
2022/01/24 12:02:28;;;;;;;108.32;39.10;;;;;;;6.00;63.39;103390.97;5033245;28;20038;-44
2022/01/24 12:04:58;;;;;;;126.40;43.70;;;;;;;6.00;63.54;103388.28;5033153;28;20025;-44
2022/01/24 12:07:28;;;;;;;107.50;41.00;;;;;;;6.05;64.21;103387.06;5014932;28;20033;-44
2022/01/24 12:09:55;;;;;;;117.32;44.22;;;;;;;6.10;63.97;103373.44;5031114;28;20492;-42
2022/01/24 12:12:36;;;;;;;112.28;42.13;;;;;;;6.04;64.35;103382.69;5033003;28;20045;-45
2022/01/24 12:15:03;;;;;;;124.13;43.58;;;;;;;6.01;64.32;103377.53;5033312;28;20029;-44
2022/01/24 12:17:51;;;;;;;111.38;40.67;;;;;;;5.91;63.81;103382.50;5031557;28;20033;-44
2022/01/24 12:20:29;;;;;;;114.93;42.80;;;;;;;5.81;64.42;103370.63;5025746;28;20037;-45
2022/01/24 12:22:54;;;;;;;111.72;42.88;;;;;;;5.90;64.53;103388.81;5029261;28;20345;-44
2022/01/24 12:25:54;;;;;;;118.50;44.55;;;;;;;5.92;65.38;103381.56;5031781;28;20028;-44
2022/01/24 12:28:21;;;;;;;118.88;43.75;;;;;;;5.98;66.72;103382.16;5032424;28;20100;-45
2022/01/24 12:31:04;;;;;;;125.23;45.77;;;;;;;6.04;65.79;103372.00;5031435;28;20432;-43
2022/01/24 12:33:38;;;;;;;116.68;42.17;;;;;;;6.01;65.71;103369.50;5031201;28;20030;-44
2022/01/24 12:36:09;;;;;;;127.13;44.85;;;;;;;6.08;65.77;103364.63;5030586;28;20033;-43
2022/01/24 12:38:49;;;;;;;123.53;43.58;;;;;;;6.10;63.61;103366.28;5030345;28;20091;-44
2022/01/24 12:41:28;;;;;;;130.27;46.00;;;;;;;6.13;63.83;103371.47;5013221;28;20041;-46
2022/01/24 12:44:12;;;;;;;128.63;45.45;;;;;;;6.01;64.73;103365.97;5031995;28;20029;-43
2022/01/24 12:46:38;;;;;;;129.18;45.88;;;;;;;6.27;65.00;103364.44;5030936;28;20025;-43
2022/01/24 12:49:05;;;;;;;124.38;43.65;;;;;;;6.41;64.34;103358.25;5032179;28;20334;-43
2022/01/24 12:51:33;;;;;;;145.70;48.85;;;;;;;6.31;64.90;103358.78;5030713;28;20036;-44
2022/01/24 12:54:02;;;;;;;130.75;46.53;;;;;;;6.37;64.29;103363.78;5029040;28;20100;-43
2022/01/24 12:56:30;;;;;;;126.15;43.53;;;;;;;6.46;64.02;103356.16;5024173;28;20564;-43
2022/01/24 12:58:55;;;;;;;;;;;;;;;6.36;63.48;103362.03;5024686;28;20043;-44
2022/01/24 13:01:26;;;;;;;131.85;44.33;;;;;;;6.30;64.53;103351.72;5025457;28;20372;-43
2022/01/24 13:04:12;;;;;;;131.27;46.90;;;;;;;6.25;63.74;103353.81;5011340;28;20084;-42
2022/01/24 13:06:39;;;;;;;130.23;45.28;;;;;;;6.10;63.61;103346.69;5028520;28;20120;-41
2022/01/24 13:09:10;;;;;;;138.13;47.90;;;;;;;5.99;64.60;103350.00;5027395;28;20037;-42
2022/01/24 13:11:44;;;;;;;127.30;45.30;;;;;;;6.00;64.91;103337.50;5027980;28;20124;-42